createdAt,value
2023-03-26T00:01:09.068Z,76.50
2023-03-26T00:03:36.209Z,76.50
2023-03-26T00:06:03.483Z,76.70
2023-03-26T00:08:31.759Z,76.40
2023-03-26T00:11:00.019Z,76.40
2023-03-26T00:13:27.983Z,76.40
2023-03-26T00:15:55.010Z,76.40
2023-03-26T00:18:21.969Z,76.30
2023-03-26T00:20:48.850Z,76.30
2023-03-26T00:23:15.751Z,76.30
2023-03-26T00:25:43.989Z,76.30
2023-03-26T00:28:10.907Z,76.20
2023-03-26T00:30:37.990Z,76.30
2023-03-26T00:33:04.935Z,76.30
2023-03-26T00:35:31.876Z,76.30
2023-03-26T00:37:58.761Z,76.20
2023-03-26T00:40:25.647Z,76.30
2023-03-26T00:42:53.924Z,76.30
2023-03-26T00:45:20.810Z,76.20
2023-03-26T00:47:47.843Z,76.20
2023-03-26T00:50:14.850Z,76.20
2023-03-26T00:52:42.418Z,76.20
2023-03-26T00:55:09.738Z,76.20
2023-03-26T00:57:36.629Z,76.20
2023-03-26T01:00:06.464Z,76.20
2023-03-26T01:02:33.426Z,76.20
2023-03-26T01:05:00.370Z,76.20
2023-03-26T01:07:27.301Z,76.20
2023-03-26T01:09:54.564Z,76.20
2023-03-26T01:12:26.627Z,76.20
2023-03-26T01:14:54.771Z,76.20
2023-03-26T01:17:23.177Z,76.20
2023-03-26T01:19:52.453Z,76.20
2023-03-26T01:22:20.341Z,76.20
2023-03-26T01:24:48.611Z,76.20
2023-03-26T01:27:23.613Z,76.20
2023-03-26T01:29:53.032Z,76.70
2023-03-26T01:32:24.889Z,76.20
2023-03-26T01:34:58.416Z,76.20
2023-03-26T01:37:28.064Z,76.10
2023-03-26T01:39:57.118Z,76.20
2023-03-26T01:42:28.100Z,76.20
2023-03-26T01:44:56.955Z,76.10
2023-03-26T01:47:23.898Z,76.20
2023-03-26T01:49:50.893Z,76.20
2023-03-26T01:52:19.856Z,76.20
2023-03-26T01:54:46.785Z,76.20
2023-03-26T01:57:19.163Z,76.20
2023-03-26T01:59:54.971Z,76.10
2023-03-26T02:02:22.897Z,76.10
2023-03-26T02:04:51.622Z,76.10
2023-03-26T02:07:21.654Z,76.00
2023-03-26T02:09:49.753Z,75.90
2023-03-26T02:12:18.019Z,75.90
2023-03-26T02:14:45.143Z,75.90
2023-03-26T02:17:12.084Z,75.90
2023-03-26T02:19:39.124Z,75.90
2023-03-26T02:22:05.995Z,75.90
2023-03-26T02:24:32.879Z,75.80
2023-03-26T02:26:59.772Z,75.90
2023-03-26T02:29:28.027Z,75.80
2023-03-26T02:31:54.949Z,75.80
2023-03-26T02:34:21.874Z,75.80
2023-03-26T02:36:48.771Z,75.80
2023-03-26T02:39:15.757Z,75.80
2023-03-26T02:41:42.632Z,75.80
2023-03-26T02:44:09.544Z,75.80
2023-03-26T02:46:37.816Z,75.80
2023-03-26T02:49:04.732Z,75.70
2023-03-26T02:51:31.590Z,75.80
2023-03-26T02:53:58.490Z,75.80
2023-03-26T02:56:25.384Z,75.80
2023-03-26T02:58:52.314Z,75.80
2023-03-26T03:01:19.237Z,75.80
2023-03-26T03:03:47.541Z,75.80
2023-03-26T03:06:14.610Z,75.70
2023-03-26T03:08:41.535Z,75.80
2023-03-26T03:11:09.275Z,75.80
2023-03-26T03:13:36.137Z,75.80
2023-03-26T03:16:03.083Z,76.00
2023-03-26T03:18:29.954Z,76.00
2023-03-26T03:20:58.228Z,75.90
2023-03-26T03:23:25.136Z,75.80
2023-03-26T03:25:52.366Z,75.90
2023-03-26T03:28:19.590Z,75.90
2023-03-26T03:30:46.458Z,75.90
2023-03-26T03:33:13.328Z,76.00
2023-03-26T03:35:40.352Z,76.00
2023-03-26T03:38:08.631Z,76.20
2023-03-26T03:40:35.594Z,76.20
2023-03-26T03:43:02.491Z,76.30
2023-03-26T03:45:29.391Z,76.30
2023-03-26T03:47:56.454Z,77.10
2023-03-26T03:50:23.367Z,76.40
2023-03-26T03:52:50.263Z,76.40
2023-03-26T03:55:18.694Z,76.40
2023-03-26T03:57:45.588Z,76.40
2023-03-26T04:00:13.708Z,76.50
2023-03-26T04:02:40.781Z,76.50
2023-03-26T04:05:08.262Z,76.60
2023-03-26T04:07:35.130Z,76.60
2023-03-26T04:10:02.047Z,76.70
2023-03-26T04:12:30.487Z,76.80
2023-03-26T04:14:57.454Z,76.80
2023-03-26T04:17:24.540Z,76.80
2023-03-26T04:19:51.447Z,76.90
2023-03-26T04:22:18.302Z,77.00
2023-03-26T04:24:45.186Z,77.00
2023-03-26T04:27:14.732Z,77.00
2023-03-26T04:29:44.114Z,77.00
2023-03-26T04:32:12.271Z,77.00
2023-03-26T04:34:39.183Z,77.10
2023-03-26T04:37:06.097Z,77.20
2023-03-26T04:39:32.981Z,77.20
2023-03-26T04:41:59.909Z,77.20
2023-03-26T04:44:26.800Z,77.20
2023-03-26T04:46:55.089Z,77.20
2023-03-26T04:49:21.997Z,77.20
2023-03-26T04:51:48.889Z,77.30
2023-03-26T04:54:16.080Z,77.30
2023-03-26T04:56:44.587Z,77.40
2023-03-26T04:59:12.878Z,77.40
2023-03-26T05:01:39.838Z,77.40
2023-03-26T05:04:08.198Z,77.50
2023-03-26T05:06:35.148Z,77.50
2023-03-26T05:09:02.088Z,77.50
2023-03-26T05:11:28.979Z,77.60
2023-03-26T05:13:55.876Z,77.70
2023-03-26T05:16:22.852Z,77.60
2023-03-26T05:18:49.828Z,77.70
2023-03-26T05:21:18.104Z,77.70
2023-03-26T05:23:45.053Z,77.70
2023-03-26T05:26:11.989Z,77.70
2023-03-26T05:28:38.890Z,77.70
2023-03-26T05:31:06.193Z,77.80
2023-03-26T05:33:33.192Z,77.80
2023-03-26T05:36:00.374Z,77.80
2023-03-26T05:38:28.924Z,77.80
2023-03-26T05:40:58.469Z,78.70
2023-03-26T05:43:25.402Z,77.90
2023-03-26T05:45:52.349Z,78.00
2023-03-26T05:48:19.315Z,78.00
2023-03-26T05:50:48.185Z,78.10
2023-03-26T05:53:15.066Z,78.20
2023-03-26T05:55:43.388Z,79.00
2023-03-26T05:58:10.245Z,78.20
2023-03-26T06:00:37.191Z,78.20
2023-03-26T06:03:04.293Z,78.30
2023-03-26T06:05:32.316Z,78.20
2023-03-26T06:07:59.205Z,78.30
2023-03-26T06:10:26.159Z,78.30
2023-03-26T06:12:54.423Z,78.30
2023-03-26T06:15:21.343Z,78.30
2023-03-26T06:17:48.215Z,78.40
2023-03-26T06:20:15.373Z,78.30
2023-03-26T06:22:42.266Z,78.30
2023-03-26T06:25:09.431Z,78.30
2023-03-26T06:27:36.308Z,78.30
2023-03-26T06:30:05.587Z,78.30
2023-03-26T06:32:32.512Z,78.30
2023-03-26T06:34:59.396Z,78.30
2023-03-26T06:37:26.285Z,78.30
2023-03-26T06:39:53.177Z,78.40
2023-03-26T06:42:20.072Z,78.30
2023-03-26T06:44:46.999Z,78.30
2023-03-26T06:47:15.263Z,78.30
2023-03-26T06:49:43.133Z,78.40
2023-03-26T06:52:11.763Z,78.30
2023-03-26T06:54:38.698Z,78.40
2023-03-26T06:57:05.609Z,78.40
2023-03-26T06:59:32.562Z,78.30
2023-03-26T07:01:59.428Z,78.30
2023-03-26T07:04:27.786Z,78.40
2023-03-26T07:06:54.753Z,78.30
2023-03-26T07:09:21.803Z,78.30
2023-03-26T07:11:48.688Z,78.30
2023-03-26T07:14:15.579Z,78.20
2023-03-26T07:16:42.474Z,78.20
2023-03-26T07:19:09.419Z,78.20
2023-03-26T07:21:38.382Z,78.20
2023-03-26T07:24:06.024Z,78.20
2023-03-26T07:26:34.654Z,78.20
2023-03-26T07:29:05.314Z,78.30
2023-03-26T07:31:34.305Z,78.20
2023-03-26T07:34:04.179Z,78.20
2023-03-26T07:36:32.940Z,78.20
2023-03-26T07:39:08.991Z,78.30
2023-03-26T07:41:39.952Z,78.20
2023-03-26T07:44:28.277Z,78.30
2023-03-26T07:46:55.641Z,78.30
2023-03-26T07:49:23.014Z,78.40
2023-03-26T07:51:50.414Z,78.40
2023-03-26T07:54:19.242Z,78.30
2023-03-26T07:56:48.864Z,78.30
2023-03-26T07:59:20.680Z,78.30
2023-03-26T08:01:56.533Z,78.30
2023-03-26T08:04:36.349Z,78.30
2023-03-26T08:07:05.301Z,78.20
2023-03-26T08:09:34.954Z,78.40
2023-03-26T08:12:06.405Z,78.30
2023-03-26T08:14:45.161Z,78.30
2023-03-26T08:17:13.345Z,78.10
2023-03-26T08:19:54.502Z,78.30
2023-03-26T08:22:23.349Z,78.00
2023-03-26T08:25:13.816Z,78.20
2023-03-26T08:27:41.062Z,78.10
2023-03-26T08:30:10.013Z,78.20
2023-03-26T08:32:37.324Z,78.10
2023-03-26T08:35:04.800Z,78.10
2023-03-26T08:37:31.702Z,78.10
2023-03-26T08:39:59.954Z,78.20
2023-03-26T08:42:42.840Z,78.10
2023-03-26T08:45:28.925Z,77.90
2023-03-26T08:48:44.497Z,78.00
2023-03-26T08:51:33.875Z,77.90
2023-03-26T08:54:34.533Z,77.90
2023-03-26T08:57:18.610Z,77.90
2023-03-26T09:00:17.436Z,78.10
2023-03-26T09:03:17.453Z,78.10
2023-03-26T09:06:12.648Z,78.00
2023-03-26T09:09:19.097Z,77.90
2023-03-26T09:12:23.777Z,78.10
2023-03-26T09:15:28.307Z,78.00
2023-03-26T09:18:29.819Z,78.00
2023-03-26T09:21:14.167Z,78.00
2023-03-26T09:24:10.958Z,78.80
2023-03-26T09:26:44.953Z,78.00
2023-03-26T09:29:32.274Z,78.40
2023-03-26T09:32:24.793Z,78.20
2023-03-26T09:35:13.942Z,78.50
2023-03-26T09:37:58.020Z,78.20
2023-03-26T09:40:28.800Z,78.10
2023-03-26T09:42:56.523Z,78.10
2023-03-26T09:45:34.805Z,78.10
2023-03-26T09:48:24.282Z,77.70
2023-03-26T09:51:03.259Z,77.70
2023-03-26T09:53:59.440Z,77.70
2023-03-26T09:56:31.901Z,77.50
2023-03-26T09:59:40.194Z,77.70
2023-03-26T10:02:18.645Z,78.20
2023-03-26T10:04:57.750Z,77.70
2023-03-26T10:07:41.115Z,77.60
2023-03-26T10:10:09.081Z,77.60
2023-03-26T10:12:36.967Z,77.80
2023-03-26T10:15:11.657Z,77.80
2023-03-26T10:17:46.586Z,77.70
2023-03-26T10:20:31.909Z,77.70
2023-03-26T10:23:04.651Z,77.60
2023-03-26T10:25:40.981Z,77.70
2023-03-26T10:28:24.784Z,77.80
2023-03-26T10:31:06.816Z,77.80
2023-03-26T10:33:38.849Z,77.80
2023-03-26T10:36:32.142Z,78.00
2023-03-26T10:39:06.714Z,77.60
2023-03-26T10:41:37.163Z,78.00
2023-03-26T10:44:33.523Z,78.00
2023-03-26T10:47:35.197Z,77.80
2023-03-26T10:50:23.119Z,77.80
2023-03-26T10:52:54.231Z,77.90
2023-03-26T10:55:24.174Z,78.10
2023-03-26T10:57:52.953Z,78.20
2023-03-26T11:00:20.848Z,78.20
2023-03-26T11:02:59.357Z,78.10
2023-03-26T11:05:41.358Z,78.10
2023-03-26T11:08:10.753Z,77.90
2023-03-26T11:10:44.849Z,78.00
2023-03-26T11:13:14.042Z,77.90
2023-03-26T11:15:42.881Z,77.80
2023-03-26T11:18:13.495Z,78.30
2023-03-26T11:20:41.728Z,78.10
2023-03-26T11:23:33.079Z,78.00
2023-03-26T11:26:11.904Z,77.80
2023-03-26T11:29:04.356Z,77.90
2023-03-26T11:31:45.512Z,78.00
2023-03-26T11:34:14.935Z,78.00
2023-03-26T11:36:43.655Z,78.00
2023-03-26T11:39:13.130Z,78.00
2023-03-26T11:41:39.978Z,77.80
2023-03-26T11:44:15.148Z,77.70
2023-03-26T11:46:44.352Z,77.50
2023-03-26T11:49:12.384Z,77.50
2023-03-26T11:51:39.702Z,77.50
2023-03-26T11:54:07.464Z,77.50
2023-03-26T11:56:37.490Z,77.40
2023-03-26T11:59:05.488Z,77.30
2023-03-26T12:01:44.554Z,77.30
2023-03-26T12:04:12.349Z,77.10
2023-03-26T12:06:39.296Z,77.30
2023-03-26T12:09:15.900Z,77.20
2023-03-26T12:11:44.183Z,77.00
2023-03-26T12:14:16.277Z,77.10
2023-03-26T17:22:12.459Z,75.10
2023-03-26T17:24:42.785Z,75.60
2023-03-26T17:27:18.834Z,75.50
2023-03-26T17:29:57.147Z,75.20
2023-03-26T17:32:24.381Z,75.10
2023-03-26T17:35:00.350Z,75.20
2023-03-26T17:37:40.148Z,74.90
2023-03-26T17:40:47.645Z,74.80
2023-03-26T17:43:32.473Z,74.60
2023-03-26T17:46:02.883Z,74.80
2023-03-26T17:48:32.515Z,75.10
2023-03-26T17:51:01.343Z,75.00
2023-03-26T17:53:29.934Z,74.90
2023-03-26T17:55:57.870Z,74.80
2023-03-26T17:58:27.057Z,74.80
2023-03-26T18:00:59.051Z,74.70
2023-03-26T18:03:30.914Z,74.70
2023-03-26T18:06:06.045Z,74.70
2023-03-26T18:08:46.617Z,74.50
2023-03-26T18:11:32.272Z,74.50
